sensor_id;sensor_type;location;lat;lon;timestamp;P1;durP1;ratioP1;P2;durP2;ratioP2
71104;SDS011;58760;48.716;8.962;2023-04-25T00:00:21;3.30;;;1.50;;
71104;SDS011;58760;48.716;8.962;2023-04-25T00:02:46;3.80;;;1.60;;
71104;SDS011;58760;48.716;8.962;2023-04-25T00:05:12;5.00;;;1.60;;
71104;SDS011;58760;48.716;8.962;2023-04-25T00:07:39;4.10;;;1.38;;
71104;SDS011;58760;48.716;8.962;2023-04-25T00:10:07;3.17;;;1.30;;
71104;SDS011;58760;48.716;8.962;2023-04-25T00:12:33;3.92;;;1.40;;
71104;SDS011;58760;48.716;8.962;2023-04-25T00:14:58;4.53;;;1.77;;
71104;SDS011;58760;48.716;8.962;2023-04-25T00:17:25;3.38;;;1.50;;
71104;SDS011;58760;48.716;8.962;2023-04-25T00:19:51;2.60;;;1.48;;
71104;SDS011;58760;48.716;8.962;2023-04-25T00:22:17;2.88;;;1.42;;
71104;SDS011;58760;48.716;8.962;2023-04-25T00:24:43;4.60;;;1.58;;
71104;SDS011;58760;48.716;8.962;2023-04-25T00:27:08;3.53;;;1.60;;
71104;SDS011;58760;48.716;8.962;2023-04-25T00:29:33;3.55;;;1.52;;
71104;SDS011;58760;48.716;8.962;2023-04-25T00:31:59;3.65;;;1.50;;
71104;SDS011;58760;48.716;8.962;2023-04-25T00:34:25;2.90;;;1.50;;
71104;SDS011;58760;48.716;8.962;2023-04-25T00:36:50;4.95;;;1.52;;
71104;SDS011;58760;48.716;8.962;2023-04-25T00:39:16;2.95;;;1.40;;
71104;SDS011;58760;48.716;8.962;2023-04-25T00:41:41;3.42;;;1.52;;
71104;SDS011;58760;48.716;8.962;2023-04-25T00:44:08;3.47;;;1.50;;
71104;SDS011;58760;48.716;8.962;2023-04-25T00:46:36;4.57;;;1.80;;
71104;SDS011;58760;48.716;8.962;2023-04-25T00:49:02;6.72;;;1.65;;
71104;SDS011;58760;48.716;8.962;2023-04-25T00:51:27;5.55;;;2.00;;
71104;SDS011;58760;48.716;8.962;2023-04-25T00:53:53;3.90;;;1.70;;
71104;SDS011;58760;48.716;8.962;2023-04-25T00:56:19;3.38;;;1.48;;
71104;SDS011;58760;48.716;8.962;2023-04-25T00:58:46;3.10;;;1.42;;
71104;SDS011;58760;48.716;8.962;2023-04-25T01:01:13;3.50;;;1.52;;
71104;SDS011;58760;48.716;8.962;2023-04-25T01:03:39;3.00;;;1.50;;
71104;SDS011;58760;48.716;8.962;2023-04-25T01:06:10;3.22;;;1.48;;
71104;SDS011;58760;48.716;8.962;2023-04-25T01:08:37;5.25;;;1.80;;
71104;SDS011;58760;48.716;8.962;2023-04-25T01:13:29;4.13;;;1.38;;
71104;SDS011;58760;48.716;8.962;2023-04-25T01:15:57;4.57;;;1.67;;
71104;SDS011;58760;48.716;8.962;2023-04-25T01:18:22;3.90;;;1.60;;
71104;SDS011;58760;48.716;8.962;2023-04-25T01:20:49;3.80;;;1.60;;
71104;SDS011;58760;48.716;8.962;2023-04-25T01:23:16;4.55;;;1.77;;
71104;SDS011;58760;48.716;8.962;2023-04-25T01:25:41;4.38;;;1.58;;
71104;SDS011;58760;48.716;8.962;2023-04-25T01:28:07;4.90;;;1.70;;
71104;SDS011;58760;48.716;8.962;2023-04-25T01:30:32;4.72;;;1.70;;
71104;SDS011;58760;48.716;8.962;2023-04-25T01:32:59;4.05;;;1.73;;
71104;SDS011;58760;48.716;8.962;2023-04-25T01:35:26;3.00;;;1.60;;
71104;SDS011;58760;48.716;8.962;2023-04-25T01:37:51;5.15;;;1.90;;
71104;SDS011;58760;48.716;8.962;2023-04-25T01:40:17;6.72;;;2.35;;
71104;SDS011;58760;48.716;8.962;2023-04-25T01:42:44;5.57;;;1.70;;
71104;SDS011;58760;48.716;8.962;2023-04-25T01:45:10;7.15;;;1.90;;
71104;SDS011;58760;48.716;8.962;2023-04-25T01:47:37;5.55;;;2.10;;
71104;SDS011;58760;48.716;8.962;2023-04-25T01:50:04;4.68;;;1.90;;
71104;SDS011;58760;48.716;8.962;2023-04-25T01:52:32;4.88;;;1.70;;
71104;SDS011;58760;48.716;8.962;2023-04-25T01:54:57;4.05;;;1.77;;
71104;SDS011;58760;48.716;8.962;2023-04-25T01:57:26;4.57;;;1.85;;
71104;SDS011;58760;48.716;8.962;2023-04-25T01:59:51;5.43;;;1.95;;
71104;SDS011;58760;48.716;8.962;2023-04-25T02:02:22;3.95;;;1.70;;
71104;SDS011;58760;48.716;8.962;2023-04-25T02:04:48;5.03;;;1.75;;
71104;SDS011;58760;48.716;8.962;2023-04-25T02:07:13;6.90;;;1.73;;
71104;SDS011;58760;48.716;8.962;2023-04-25T02:09:38;4.30;;;1.70;;
71104;SDS011;58760;48.716;8.962;2023-04-25T02:12:04;4.72;;;1.70;;
71104;SDS011;58760;48.716;8.962;2023-04-25T02:14:30;6.45;;;1.77;;
71104;SDS011;58760;48.716;8.962;2023-04-25T02:16:55;3.78;;;1.48;;
71104;SDS011;58760;48.716;8.962;2023-04-25T02:19:20;4.15;;;1.45;;
71104;SDS011;58760;48.716;8.962;2023-04-25T02:21:46;3.88;;;1.65;;
71104;SDS011;58760;48.716;8.962;2023-04-25T02:24:11;4.85;;;1.70;;
71104;SDS011;58760;48.716;8.962;2023-04-25T02:26:36;3.17;;;1.50;;
71104;SDS011;58760;48.716;8.962;2023-04-25T02:29:02;3.97;;;1.50;;
71104;SDS011;58760;48.716;8.962;2023-04-25T02:31:27;3.53;;;1.63;;
71104;SDS011;58760;48.716;8.962;2023-04-25T02:33:53;4.22;;;1.48;;
71104;SDS011;58760;48.716;8.962;2023-04-25T02:36:18;4.03;;;1.50;;
71104;SDS011;58760;48.716;8.962;2023-04-25T02:38:43;3.63;;;1.58;;
71104;SDS011;58760;48.716;8.962;2023-04-25T02:41:09;3.58;;;1.30;;
71104;SDS011;58760;48.716;8.962;2023-04-25T02:43:34;3.58;;;1.27;;
71104;SDS011;58760;48.716;8.962;2023-04-25T02:46:00;3.90;;;1.40;;
71104;SDS011;58760;48.716;8.962;2023-04-25T02:48:25;3.30;;;1.38;;
71104;SDS011;58760;48.716;8.962;2023-04-25T02:50:51;4.57;;;1.50;;
71104;SDS011;58760;48.716;8.962;2023-04-25T02:53:16;3.13;;;1.40;;
71104;SDS011;58760;48.716;8.962;2023-04-25T02:55:41;4.20;;;1.40;;
71104;SDS011;58760;48.716;8.962;2023-04-25T02:58:07;2.55;;;1.30;;
71104;SDS011;58760;48.716;8.962;2023-04-25T03:00:32;3.22;;;1.48;;
71104;SDS011;58760;48.716;8.962;2023-04-25T03:02:57;4.18;;;1.63;;
71104;SDS011;58760;48.716;8.962;2023-04-25T03:05:23;4.53;;;1.60;;
71104;SDS011;58760;48.716;8.962;2023-04-25T03:07:48;3.92;;;1.50;;
71104;SDS011;58760;48.716;8.962;2023-04-25T03:10:14;3.72;;;1.48;;
71104;SDS011;58760;48.716;8.962;2023-04-25T03:12:39;3.42;;;1.45;;
71104;SDS011;58760;48.716;8.962;2023-04-25T03:15:05;3.20;;;1.33;;
71104;SDS011;58760;48.716;8.962;2023-04-25T03:17:30;4.57;;;1.50;;
71104;SDS011;58760;48.716;8.962;2023-04-25T03:19:56;3.63;;;1.45;;
71104;SDS011;58760;48.716;8.962;2023-04-25T03:22:22;3.47;;;1.40;;
71104;SDS011;58760;48.716;8.962;2023-04-25T03:24:48;5.20;;;1.40;;
71104;SDS011;58760;48.716;8.962;2023-04-25T03:27:14;4.03;;;1.48;;
71104;SDS011;58760;48.716;8.962;2023-04-25T03:29:40;4.95;;;1.40;;
71104;SDS011;58760;48.716;8.962;2023-04-25T03:32:05;3.28;;;1.40;;
71104;SDS011;58760;48.716;8.962;2023-04-25T03:34:31;3.88;;;1.65;;
71104;SDS011;58760;48.716;8.962;2023-04-25T03:36:56;4.40;;;1.52;;
71104;SDS011;58760;48.716;8.962;2023-04-25T03:39:21;4.93;;;1.65;;
71104;SDS011;58760;48.716;8.962;2023-04-25T03:41:47;2.97;;;1.50;;
71104;SDS011;58760;48.716;8.962;2023-04-25T03:44:12;4.68;;;1.67;;
71104;SDS011;58760;48.716;8.962;2023-04-25T03:46:38;2.55;;;1.58;;
71104;SDS011;58760;48.716;8.962;2023-04-25T03:49:03;3.53;;;1.50;;
71104;SDS011;58760;48.716;8.962;2023-04-25T03:51:28;4.10;;;1.52;;
71104;SDS011;58760;48.716;8.962;2023-04-25T03:53:54;6.38;;;1.60;;
71104;SDS011;58760;48.716;8.962;2023-04-25T03:56:19;3.72;;;1.50;;
71104;SDS011;58760;48.716;8.962;2023-04-25T03:58:45;3.72;;;1.58;;
71104;SDS011;58760;48.716;8.962;2023-04-25T04:01:11;4.15;;;1.50;;
71104;SDS011;58760;48.716;8.962;2023-04-25T04:03:36;5.35;;;1.65;;
71104;SDS011;58760;48.716;8.962;2023-04-25T04:06:05;5.72;;;1.80;;
71104;SDS011;58760;48.716;8.962;2023-04-25T04:08:31;3.65;;;1.50;;
71104;SDS011;58760;48.716;8.962;2023-04-25T04:10:58;4.78;;;1.80;;
71104;SDS011;58760;48.716;8.962;2023-04-25T04:13:25;5.05;;;1.88;;
71104;SDS011;58760;48.716;8.962;2023-04-25T04:15:51;4.55;;;1.65;;
71104;SDS011;58760;48.716;8.962;2023-04-25T04:18:17;5.22;;;1.90;;
71104;SDS011;58760;48.716;8.962;2023-04-25T04:20:42;5.10;;;1.80;;
71104;SDS011;58760;48.716;8.962;2023-04-25T04:23:07;4.15;;;2.03;;
71104;SDS011;58760;48.716;8.962;2023-04-25T04:25:33;3.92;;;1.80;;
71104;SDS011;58760;48.716;8.962;2023-04-25T04:27:59;5.30;;;2.10;;
71104;SDS011;58760;48.716;8.962;2023-04-25T04:30:26;6.70;;;2.10;;
71104;SDS011;58760;48.716;8.962;2023-04-25T04:32:54;5.55;;;2.05;;
71104;SDS011;58760;48.716;8.962;2023-04-25T04:35:21;3.92;;;1.75;;
71104;SDS011;58760;48.716;8.962;2023-04-25T04:37:47;9.15;;;2.17;;
71104;SDS011;58760;48.716;8.962;2023-04-25T04:40:13;4.57;;;1.73;;
71104;SDS011;58760;48.716;8.962;2023-04-25T04:42:43;4.82;;;1.98;;
71104;SDS011;58760;48.716;8.962;2023-04-25T04:45:10;6.80;;;2.00;;
71104;SDS011;58760;48.716;8.962;2023-04-25T04:47:36;3.97;;;1.65;;
71104;SDS011;58760;48.716;8.962;2023-04-25T04:50:02;7.00;;;2.00;;
71104;SDS011;58760;48.716;8.962;2023-04-25T04:52:29;4.28;;;2.08;;
71104;SDS011;58760;48.716;8.962;2023-04-25T04:54:55;5.75;;;2.08;;
71104;SDS011;58760;48.716;8.962;2023-04-25T04:57:20;5.85;;;1.85;;
71104;SDS011;58760;48.716;8.962;2023-04-25T04:59:46;6.57;;;2.20;;
71104;SDS011;58760;48.716;8.962;2023-04-25T05:02:11;4.40;;;2.03;;
71104;SDS011;58760;48.716;8.962;2023-04-25T05:04:36;4.57;;;1.80;;
71104;SDS011;58760;48.716;8.962;2023-04-25T05:07:02;4.22;;;2.00;;
71104;SDS011;58760;48.716;8.962;2023-04-25T05:09:27;4.68;;;2.20;;
71104;SDS011;58760;48.716;8.962;2023-04-25T05:11:53;5.38;;;1.92;;
71104;SDS011;58760;48.716;8.962;2023-04-25T05:14:18;4.65;;;1.90;;
71104;SDS011;58760;48.716;8.962;2023-04-25T05:16:44;5.65;;;2.10;;
71104;SDS011;58760;48.716;8.962;2023-04-25T05:19:09;7.40;;;2.30;;
71104;SDS011;58760;48.716;8.962;2023-04-25T05:21:35;5.18;;;2.20;;
71104;SDS011;58760;48.716;8.962;2023-04-25T05:24:01;5.32;;;2.00;;
71104;SDS011;58760;48.716;8.962;2023-04-25T05:26:26;6.00;;;2.67;;
71104;SDS011;58760;48.716;8.962;2023-04-25T05:28:56;4.50;;;2.00;;
71104;SDS011;58760;48.716;8.962;2023-04-25T05:31:22;4.82;;;2.03;;
71104;SDS011;58760;48.716;8.962;2023-04-25T05:33:47;4.03;;;1.75;;
71104;SDS011;58760;48.716;8.962;2023-04-25T05:36:12;3.85;;;1.75;;
71104;SDS011;58760;48.716;8.962;2023-04-25T05:38:38;5.30;;;2.03;;
71104;SDS011;58760;48.716;8.962;2023-04-25T05:41:03;5.45;;;2.30;;
71104;SDS011;58760;48.716;8.962;2023-04-25T05:43:28;8.73;;;2.42;;
71104;SDS011;58760;48.716;8.962;2023-04-25T05:45:54;5.20;;;2.17;;
71104;SDS011;58760;48.716;8.962;2023-04-25T05:48:19;7.53;;;2.40;;
71104;SDS011;58760;48.716;8.962;2023-04-25T05:50:45;6.15;;;2.38;;
71104;SDS011;58760;48.716;8.962;2023-04-25T05:53:10;4.53;;;1.90;;
71104;SDS011;58760;48.716;8.962;2023-04-25T05:55:36;5.20;;;2.05;;
71104;SDS011;58760;48.716;8.962;2023-04-25T05:58:01;4.72;;;1.90;;
71104;SDS011;58760;48.716;8.962;2023-04-25T06:00:26;5.03;;;1.98;;
71104;SDS011;58760;48.716;8.962;2023-04-25T06:02:52;4.57;;;2.40;;
71104;SDS011;58760;48.716;8.962;2023-04-25T06:05:17;5.88;;;2.35;;
71104;SDS011;58760;48.716;8.962;2023-04-25T06:07:43;8.07;;;2.10;;
71104;SDS011;58760;48.716;8.962;2023-04-25T06:10:08;7.13;;;2.58;;
71104;SDS011;58760;48.716;8.962;2023-04-25T06:12:34;3.90;;;1.88;;
71104;SDS011;58760;48.716;8.962;2023-04-25T06:15:00;5.30;;;1.80;;
71104;SDS011;58760;48.716;8.962;2023-04-25T06:17:25;5.57;;;2.15;;
71104;SDS011;58760;48.716;8.962;2023-04-25T06:19:51;7.32;;;2.50;;
71104;SDS011;58760;48.716;8.962;2023-04-25T06:22:16;9.30;;;2.80;;
71104;SDS011;58760;48.716;8.962;2023-04-25T06:24:42;8.65;;;2.38;;
71104;SDS011;58760;48.716;8.962;2023-04-25T06:27:07;5.35;;;2.40;;
71104;SDS011;58760;48.716;8.962;2023-04-25T06:29:33;7.63;;;2.88;;
71104;SDS011;58760;48.716;8.962;2023-04-25T06:31:58;5.88;;;2.20;;
71104;SDS011;58760;48.716;8.962;2023-04-25T06:34:23;6.53;;;2.67;;
71104;SDS011;58760;48.716;8.962;2023-04-25T06:36:49;4.90;;;2.20;;
71104;SDS011;58760;48.716;8.962;2023-04-25T06:39:14;7.38;;;2.47;;
71104;SDS011;58760;48.716;8.962;2023-04-25T06:41:40;6.05;;;2.60;;
71104;SDS011;58760;48.716;8.962;2023-04-25T06:44:05;9.70;;;3.42;;
71104;SDS011;58760;48.716;8.962;2023-04-25T06:46:31;7.20;;;2.83;;
71104;SDS011;58760;48.716;8.962;2023-04-25T06:48:56;7.78;;;2.40;;
71104;SDS011;58760;48.716;8.962;2023-04-25T06:51:22;7.88;;;2.95;;
71104;SDS011;58760;48.716;8.962;2023-04-25T06:53:49;18.70;;;3.40;;
71104;SDS011;58760;48.716;8.962;2023-04-25T06:56:14;7.18;;;2.85;;
71104;SDS011;58760;48.716;8.962;2023-04-25T06:58:41;12.45;;;3.22;;
71104;SDS011;58760;48.716;8.962;2023-04-25T07:01:06;7.22;;;3.40;;
71104;SDS011;58760;48.716;8.962;2023-04-25T07:03:31;7.28;;;3.35;;
71104;SDS011;58760;48.716;8.962;2023-04-25T07:05:57;6.88;;;3.20;;
71104;SDS011;58760;48.716;8.962;2023-04-25T07:08:22;7.97;;;4.10;;
71104;SDS011;58760;48.716;8.962;2023-04-25T07:10:47;7.10;;;3.60;;
71104;SDS011;58760;48.716;8.962;2023-04-25T07:13:13;6.35;;;3.55;;
71104;SDS011;58760;48.716;8.962;2023-04-25T07:15:38;6.07;;;3.45;;
71104;SDS011;58760;48.716;8.962;2023-04-25T07:18:03;6.55;;;3.20;;
71104;SDS011;58760;48.716;8.962;2023-04-25T07:20:29;7.93;;;3.50;;
71104;SDS011;58760;48.716;8.962;2023-04-25T07:22:55;5.97;;;2.83;;
71104;SDS011;58760;48.716;8.962;2023-04-25T07:25:22;6.43;;;2.60;;
71104;SDS011;58760;48.716;8.962;2023-04-25T07:27:47;4.80;;;2.42;;
71104;SDS011;58760;48.716;8.962;2023-04-25T07:30:13;7.75;;;2.80;;
71104;SDS011;58760;48.716;8.962;2023-04-25T07:32:38;6.97;;;2.85;;
71104;SDS011;58760;48.716;8.962;2023-04-25T07:35:04;5.30;;;2.47;;
71104;SDS011;58760;48.716;8.962;2023-04-25T07:37:32;7.38;;;2.95;;
71104;SDS011;58760;48.716;8.962;2023-04-25T07:39:57;6.30;;;2.90;;
71104;SDS011;58760;48.716;8.962;2023-04-25T07:42:23;6.13;;;2.72;;
71104;SDS011;58760;48.716;8.962;2023-04-25T07:44:48;6.38;;;2.80;;
71104;SDS011;58760;48.716;8.962;2023-04-25T07:47:13;8.15;;;2.88;;
71104;SDS011;58760;48.716;8.962;2023-04-25T07:49:39;5.03;;;2.40;;
71104;SDS011;58760;48.716;8.962;2023-04-25T07:52:05;7.55;;;3.15;;
71104;SDS011;58760;48.716;8.962;2023-04-25T07:54:33;5.75;;;2.80;;
71104;SDS011;58760;48.716;8.962;2023-04-25T07:56:59;7.90;;;2.72;;
71104;SDS011;58760;48.716;8.962;2023-04-25T07:59:24;9.95;;;2.90;;
71104;SDS011;58760;48.716;8.962;2023-04-25T08:01:50;6.75;;;3.15;;
71104;SDS011;58760;48.716;8.962;2023-04-25T08:04:15;6.28;;;3.30;;
71104;SDS011;58760;48.716;8.962;2023-04-25T08:06:41;6.30;;;3.10;;
71104;SDS011;58760;48.716;8.962;2023-04-25T08:09:06;6.65;;;3.67;;
71104;SDS011;58760;48.716;8.962;2023-04-25T08:11:33;6.05;;;3.13;;
71104;SDS011;58760;48.716;8.962;2023-04-25T08:13:59;8.15;;;3.70;;
71104;SDS011;58760;48.716;8.962;2023-04-25T08:16:24;8.30;;;3.75;;
71104;SDS011;58760;48.716;8.962;2023-04-25T08:18:50;6.85;;;3.22;;
71104;SDS011;58760;48.716;8.962;2023-04-25T08:21:15;5.10;;;2.80;;
71104;SDS011;58760;48.716;8.962;2023-04-25T08:23:41;7.10;;;3.05;;
71104;SDS011;58760;48.716;8.962;2023-04-25T08:26:06;6.43;;;3.15;;
71104;SDS011;58760;48.716;8.962;2023-04-25T08:28:32;6.55;;;3.35;;
71104;SDS011;58760;48.716;8.962;2023-04-25T08:30:57;7.15;;;3.72;;
71104;SDS011;58760;48.716;8.962;2023-04-25T08:33:23;7.82;;;3.10;;
71104;SDS011;58760;48.716;8.962;2023-04-25T08:35:48;7.85;;;3.78;;
71104;SDS011;58760;48.716;8.962;2023-04-25T08:38:13;7.10;;;3.50;;
71104;SDS011;58760;48.716;8.962;2023-04-25T08:40:39;5.80;;;3.15;;
71104;SDS011;58760;48.716;8.962;2023-04-25T08:43:06;7.40;;;3.60;;
71104;SDS011;58760;48.716;8.962;2023-04-25T08:45:36;8.45;;;3.58;;
71104;SDS011;58760;48.716;8.962;2023-04-25T08:48:04;8.75;;;3.70;;
71104;SDS011;58760;48.716;8.962;2023-04-25T08:50:32;7.35;;;3.33;;
71104;SDS011;58760;48.716;8.962;2023-04-25T08:52:59;6.85;;;3.78;;
71104;SDS011;58760;48.716;8.962;2023-04-25T08:55:28;6.93;;;3.80;;
71104;SDS011;58760;48.716;8.962;2023-04-25T08:57:55;8.35;;;4.15;;
71104;SDS011;58760;48.716;8.962;2023-04-25T09:00:21;7.50;;;4.00;;
71104;SDS011;58760;48.716;8.962;2023-04-25T09:02:47;8.40;;;4.20;;
71104;SDS011;58760;48.716;8.962;2023-04-25T09:05:13;7.53;;;3.42;;
71104;SDS011;58760;48.716;8.962;2023-04-25T09:07:39;6.90;;;3.90;;
71104;SDS011;58760;48.716;8.962;2023-04-25T09:10:05;8.77;;;4.05;;
71104;SDS011;58760;48.716;8.962;2023-04-25T09:12:30;9.75;;;3.63;;
71104;SDS011;58760;48.716;8.962;2023-04-25T09:15:04;10.43;;;3.97;;
71104;SDS011;58760;48.716;8.962;2023-04-25T09:17:34;7.55;;;2.88;;
71104;SDS011;58760;48.716;8.962;2023-04-25T09:20:09;6.68;;;3.08;;
71104;SDS011;58760;48.716;8.962;2023-04-25T09:22:37;5.28;;;2.80;;
71104;SDS011;58760;48.716;8.962;2023-04-25T09:25:07;5.55;;;2.63;;
71104;SDS011;58760;48.716;8.962;2023-04-25T09:27:36;7.32;;;2.90;;
71104;SDS011;58760;48.716;8.962;2023-04-25T09:30:15;5.95;;;2.45;;
71104;SDS011;58760;48.716;8.962;2023-04-25T09:32:41;6.50;;;2.53;;
71104;SDS011;58760;48.716;8.962;2023-04-25T09:37:33;5.00;;;1.50;;
71104;SDS011;58760;48.716;8.962;2023-04-25T09:40:00;2.83;;;1.20;;
71104;SDS011;58760;48.716;8.962;2023-04-25T09:42:30;2.95;;;1.17;;
71104;SDS011;58760;48.716;8.962;2023-04-25T09:44:57;4.03;;;1.20;;
71104;SDS011;58760;48.716;8.962;2023-04-25T09:49:50;1.83;;;0.82;;
71104;SDS011;58760;48.716;8.962;2023-04-25T09:52:17;1.80;;;0.90;;
71104;SDS011;58760;48.716;8.962;2023-04-25T09:54:44;1.42;;;0.70;;
71104;SDS011;58760;48.716;8.962;2023-04-25T09:57:12;3.05;;;1.30;;
71104;SDS011;58760;48.716;8.962;2023-04-25T09:59:54;2.00;;;1.00;;
71104;SDS011;58760;48.716;8.962;2023-04-25T10:02:24;1.73;;;1.02;;
71104;SDS011;58760;48.716;8.962;2023-04-25T10:04:51;1.58;;;0.73;;
71104;SDS011;58760;48.716;8.962;2023-04-25T10:07:20;2.83;;;0.90;;
71104;SDS011;58760;48.716;8.962;2023-04-25T10:09:50;0.98;;;0.50;;
71104;SDS011;58760;48.716;8.962;2023-04-25T10:12:24;0.82;;;0.70;;
71104;SDS011;58760;48.716;8.962;2023-04-25T10:14:50;2.78;;;1.02;;
71104;SDS011;58760;48.716;8.962;2023-04-25T10:17:16;2.80;;;0.73;;
71104;SDS011;58760;48.716;8.962;2023-04-25T10:19:42;0.70;;;0.43;;
71104;SDS011;58760;48.716;8.962;2023-04-25T10:22:18;0.40;;;0.40;;
71104;SDS011;58760;48.716;8.962;2023-04-25T10:24:49;0.82;;;0.68;;
71104;SDS011;58760;48.716;8.962;2023-04-25T10:27:15;0.98;;;0.50;;
71104;SDS011;58760;48.716;8.962;2023-04-25T10:29:41;0.70;;;0.45;;
71104;SDS011;58760;48.716;8.962;2023-04-25T10:32:08;0.47;;;0.45;;
71104;SDS011;58760;48.716;8.962;2023-04-25T10:34:40;0.52;;;0.45;;
71104;SDS011;58760;48.716;8.962;2023-04-25T10:37:09;1.00;;;0.50;;
71104;SDS011;58760;48.716;8.962;2023-04-25T10:39:37;0.57;;;0.50;;
71104;SDS011;58760;48.716;8.962;2023-04-25T10:42:05;1.55;;;0.50;;
71104;SDS011;58760;48.716;8.962;2023-04-25T10:44:31;0.60;;;0.60;;
71104;SDS011;58760;48.716;8.962;2023-04-25T10:46:57;1.10;;;0.60;;
71104;SDS011;58760;48.716;8.962;2023-04-25T10:49:28;2.35;;;0.70;;
71104;SDS011;58760;48.716;8.962;2023-04-25T10:54:40;0.80;;;0.50;;
71104;SDS011;58760;48.716;8.962;2023-04-25T11:02:45;0.77;;;0.57;;
71104;SDS011;58760;48.716;8.962;2023-04-25T11:05:29;1.55;;;0.70;;
71104;SDS011;58760;48.716;8.962;2023-04-25T11:07:57;2.55;;;0.80;;
71104;SDS011;58760;48.716;8.962;2023-04-25T11:10:28;0.88;;;0.60;;
71104;SDS011;58760;48.716;8.962;2023-04-25T11:12:57;3.03;;;1.30;;
71104;SDS011;58760;48.716;8.962;2023-04-25T11:15:23;5.00;;;2.08;;
71104;SDS011;58760;48.716;8.962;2023-04-25T11:17:51;4.95;;;2.60;;
71104;SDS011;58760;48.716;8.962;2023-04-25T11:20:17;6.55;;;3.10;;
71104;SDS011;58760;48.716;8.962;2023-04-25T11:22:44;6.85;;;3.10;;
71104;SDS011;58760;48.716;8.962;2023-04-25T11:25:11;5.72;;;2.90;;
71104;SDS011;58760;48.716;8.962;2023-04-25T11:27:59;7.28;;;3.00;;
71104;SDS011;58760;48.716;8.962;2023-04-25T11:30:25;7.65;;;3.00;;
71104;SDS011;58760;48.716;8.962;2023-04-25T11:32:50;5.30;;;2.70;;
71104;SDS011;58760;48.716;8.962;2023-04-25T11:35:17;6.43;;;2.83;;
71104;SDS011;58760;48.716;8.962;2023-04-25T11:37:43;5.50;;;3.05;;
71104;SDS011;58760;48.716;8.962;2023-04-25T11:40:09;7.53;;;3.88;;
71104;SDS011;58760;48.716;8.962;2023-04-25T11:42:41;6.00;;;3.05;;
71104;SDS011;58760;48.716;8.962;2023-04-25T11:45:09;5.90;;;2.90;;
71104;SDS011;58760;48.716;8.962;2023-04-25T11:47:34;6.03;;;2.90;;
71104;SDS011;58760;48.716;8.962;2023-04-25T11:50:03;5.45;;;2.78;;
71104;SDS011;58760;48.716;8.962;2023-04-25T11:52:37;7.25;;;2.63;;
71104;SDS011;58760;48.716;8.962;2023-04-25T11:55:05;5.57;;;2.83;;
71104;SDS011;58760;48.716;8.962;2023-04-25T11:57:35;4.78;;;2.10;;
71104;SDS011;58760;48.716;8.962;2023-04-25T12:00:35;3.85;;;1.98;;
71104;SDS011;58760;48.716;8.962;2023-04-25T12:02:55;3.97;;;2.03;;
71104;SDS011;58760;48.716;8.962;2023-04-25T12:05:26;4.90;;;2.35;;
71104;SDS011;58760;48.716;8.962;2023-04-25T12:07:53;6.90;;;3.17;;
71104;SDS011;58760;48.716;8.962;2023-04-25T12:10:19;8.15;;;3.92;;
71104;SDS011;58760;48.716;8.962;2023-04-25T12:12:45;6.28;;;3.10;;
71104;SDS011;58760;48.716;8.962;2023-04-25T12:15:19;8.15;;;3.75;;
71104;SDS011;58760;48.716;8.962;2023-04-25T12:17:49;7.75;;;3.55;;
71104;SDS011;58760;48.716;8.962;2023-04-25T12:20:17;7.18;;;3.30;;
71104;SDS011;58760;48.716;8.962;2023-04-25T12:22:45;6.95;;;2.90;;
71104;SDS011;58760;48.716;8.962;2023-04-25T12:25:13;7.65;;;3.38;;
71104;SDS011;58760;48.716;8.962;2023-04-25T12:28:18;7.97;;;4.32;;
71104;SDS011;58760;48.716;8.962;2023-04-25T12:33:17;7.88;;;4.05;;
71104;SDS011;58760;48.716;8.962;2023-04-25T12:35:46;8.27;;;4.75;;
71104;SDS011;58760;48.716;8.962;2023-04-25T12:38:11;10.10;;;4.78;;
71104;SDS011;58760;48.716;8.962;2023-04-25T12:40:36;10.02;;;4.50;;
71104;SDS011;58760;48.716;8.962;2023-04-25T12:43:02;7.63;;;4.40;;
71104;SDS011;58760;48.716;8.962;2023-04-25T12:45:27;8.18;;;4.85;;
71104;SDS011;58760;48.716;8.962;2023-04-25T12:47:53;9.82;;;4.32;;
71104;SDS011;58760;48.716;8.962;2023-04-25T12:50:18;9.38;;;4.13;;
71104;SDS011;58760;48.716;8.962;2023-04-25T12:52:43;6.72;;;3.63;;
71104;SDS011;58760;48.716;8.962;2023-04-25T12:55:09;7.25;;;3.28;;
71104;SDS011;58760;48.716;8.962;2023-04-25T12:57:34;8.45;;;3.88;;
71104;SDS011;58760;48.716;8.962;2023-04-25T13:00:00;6.78;;;3.70;;
71104;SDS011;58760;48.716;8.962;2023-04-25T13:02:25;8.95;;;3.55;;
71104;SDS011;58760;48.716;8.962;2023-04-25T13:04:50;7.35;;;3.83;;
71104;SDS011;58760;48.716;8.962;2023-04-25T13:07:16;8.00;;;3.67;;
71104;SDS011;58760;48.716;8.962;2023-04-25T13:09:42;7.75;;;3.55;;
71104;SDS011;58760;48.716;8.962;2023-04-25T13:12:07;8.95;;;3.53;;
71104;SDS011;58760;48.716;8.962;2023-04-25T13:14:33;10.57;;;3.17;;
71104;SDS011;58760;48.716;8.962;2023-04-25T13:16:58;7.07;;;3.80;;
71104;SDS011;58760;48.716;8.962;2023-04-25T13:19:24;7.20;;;3.60;;
71104;SDS011;58760;48.716;8.962;2023-04-25T13:21:50;6.60;;;3.40;;
71104;SDS011;58760;48.716;8.962;2023-04-25T13:24:16;7.38;;;3.92;;
71104;SDS011;58760;48.716;8.962;2023-04-25T13:26:41;6.57;;;3.10;;
71104;SDS011;58760;48.716;8.962;2023-04-25T13:29:06;5.60;;;2.97;;
71104;SDS011;58760;48.716;8.962;2023-04-25T13:31:32;6.90;;;3.17;;
71104;SDS011;58760;48.716;8.962;2023-04-25T13:33:57;5.55;;;2.65;;
71104;SDS011;58760;48.716;8.962;2023-04-25T13:36:22;6.28;;;2.60;;
71104;SDS011;58760;48.716;8.962;2023-04-25T13:38:49;5.20;;;2.88;;
71104;SDS011;58760;48.716;8.962;2023-04-25T13:41:14;6.32;;;3.25;;
71104;SDS011;58760;48.716;8.962;2023-04-25T13:43:43;7.97;;;3.60;;
71104;SDS011;58760;48.716;8.962;2023-04-25T13:46:09;9.00;;;4.32;;
71104;SDS011;58760;48.716;8.962;2023-04-25T13:48:35;9.05;;;4.45;;
71104;SDS011;58760;48.716;8.962;2023-04-25T13:51:00;10.43;;;4.70;;
71104;SDS011;58760;48.716;8.962;2023-04-25T13:53:26;9.50;;;4.60;;
71104;SDS011;58760;48.716;8.962;2023-04-25T13:55:51;9.35;;;4.45;;
71104;SDS011;58760;48.716;8.962;2023-04-25T13:58:16;9.40;;;4.22;;
71104;SDS011;58760;48.716;8.962;2023-04-25T14:00:42;10.27;;;4.35;;
71104;SDS011;58760;48.716;8.962;2023-04-25T14:03:08;7.50;;;3.83;;
71104;SDS011;58760;48.716;8.962;2023-04-25T14:05:37;11.05;;;4.13;;
71104;SDS011;58760;48.716;8.962;2023-04-25T14:08:03;6.60;;;3.53;;
71104;SDS011;58760;48.716;8.962;2023-04-25T14:10:30;6.80;;;3.40;;
71104;SDS011;58760;48.716;8.962;2023-04-25T14:12:55;6.60;;;3.10;;
71104;SDS011;58760;48.716;8.962;2023-04-25T14:15:20;6.95;;;3.10;;
71104;SDS011;58760;48.716;8.962;2023-04-25T14:17:46;7.25;;;3.25;;
71104;SDS011;58760;48.716;8.962;2023-04-25T14:20:13;7.72;;;3.15;;
71104;SDS011;58760;48.716;8.962;2023-04-25T14:22:38;5.07;;;2.47;;
71104;SDS011;58760;48.716;8.962;2023-04-25T14:25:08;6.90;;;2.78;;
71104;SDS011;58760;48.716;8.962;2023-04-25T14:27:34;7.00;;;2.97;;
71104;SDS011;58760;48.716;8.962;2023-04-25T14:29:59;8.50;;;3.13;;
71104;SDS011;58760;48.716;8.962;2023-04-25T14:32:24;5.47;;;2.50;;
71104;SDS011;58760;48.716;8.962;2023-04-25T14:34:50;5.93;;;2.80;;
71104;SDS011;58760;48.716;8.962;2023-04-25T14:37:15;5.70;;;2.50;;
71104;SDS011;58760;48.716;8.962;2023-04-25T14:39:41;6.80;;;2.50;;
71104;SDS011;58760;48.716;8.962;2023-04-25T14:42:06;6.28;;;2.40;;
71104;SDS011;58760;48.716;8.962;2023-04-25T14:44:31;6.07;;;2.50;;
71104;SDS011;58760;48.716;8.962;2023-04-25T14:46:57;4.80;;;2.17;;
71104;SDS011;58760;48.716;8.962;2023-04-25T14:49:22;4.57;;;2.20;;
71104;SDS011;58760;48.716;8.962;2023-04-25T14:51:48;4.13;;;1.98;;
71104;SDS011;58760;48.716;8.962;2023-04-25T14:54:13;7.35;;;2.03;;
71104;SDS011;58760;48.716;8.962;2023-04-25T14:56:38;4.88;;;1.85;;
71104;SDS011;58760;48.716;8.962;2023-04-25T14:59:04;3.13;;;1.40;;
71104;SDS011;58760;48.716;8.962;2023-04-25T15:01:29;4.82;;;1.30;;